Latest Weather Observations for Larapuna (Eddystone Point)

IDT60801

Issued at 7:02 am EST Tuesday 5 May 2015 (issued every 30 minutes, with the page automatically refreshed every 10 minutes)

About weather observations | Map of weather stations | Latest weather observations for TAS | Other Formats
Station Details ID: 092045 Name: LARAPUNA (EDDYSTONE POINT) Lat: -40.99 Lon: 148.35 Height: 19.7 m
Data from the previous 72 hours. | See also: Recent months at Larapuna (Eddystone Point)
Date/Time
EST
Temp
°C
App
Temp
°C
Dew
Point
Rel
Hum
%
Delta-T
°C
Wind Press
QNH
hPa
Press
MSL
hPa
Rain
since 9 am
mm
Dir
 
Spd
km/h
Gust
km/h
Spd
kts
Gust
kts
05/07:00am 14.8 12.0 13.3 91 0.8 NNW 20 30 11 16 998.7 998.7 2.0
05/06:30am 15.1 12.5 13.8 92 0.7 NNW 20 28 11 15 999.4 999.4 1.4
05/06:00am 15.1 12.2 14.0 93 0.6 NNW 22 32 12 17 999.4 999.4 1.0
05/05:30am 15.1 12.8 14.1 94 0.6 N 19 24 10 13 999.5 999.5 0.6
05/05:00am 14.3 11.7 13.2 93 0.6 NNW 19 24 10 13 999.8 999.8 0.2
05/04:30am 14.2 11.9 13.1 93 0.6 NNW 17 22 9 12 999.9 999.9 0.2
05/04:00am 13.8 10.8 12.5 92 0.7 NNW 20 24 11 13 1000.7 1000.7 0.2
05/03:30am 13.4 10.8 12.0 91 0.8 NNW 17 22 9 12 1001.3 1001.3 0.2
05/03:00am 13.4 11.6 12.1 92 0.7 NNW 13 17 7 9 1002.5 1002.5 0.2
05/02:30am 13.9 11.5 12.5 91 0.8 NW 17 20 9 11 1003.4 1003.4 0.2
05/02:00am 15.0 12.2 13.2 89 1.0 NW 20 28 11 15 1003.6 1003.6 0.2
05/01:30am 15.6 11.4 13.6 88 1.1 NNW 28 37 15 20 1004.3 1004.3 0.2
05/01:00am 15.8 11.6 13.6 87 1.2 N 28 35 15 19 1003.5 1003.5 0.2
05/12:30am 15.6 10.6 13.3 86 1.3 N 32 39 17 21 1004.4 1004.4 0.2
05/12:00am 15.4 11.4 12.9 85 1.4 N 26 32 14 17 1005.0 1005.0 0.2
 
Date/Time
EST
Temp
°C
App
Temp
°C
Dew
Point
Rel
Hum
%
Delta-T
°C
Wind Press
QNH
hPa
Press
MSL
hPa
Rain
since 9 am
mm
Dir
 
Spd
km/h
Gust
km/h
Spd
kts
Gust
kts
04/11:30pm 15.5 11.2 13.2 86 1.3 N 28 33 15 18 1005.3 1005.3 0.2
04/11:00pm 15.3 11.0 13.1 87 1.2 N 28 35 15 19 1005.9 1005.9 0.2
04/10:30pm 14.2 11.7 12.4 89 1.0 NNW 17 22 9 12 1006.9 1006.9 0.2
04/10:00pm 14.1 11.1 12.1 88 1.1 NW 19 24 10 13 1007.8 1007.8 0.2
04/09:30pm 14.9 9.5 12.2 84 1.5 NNW 32 37 17 20 1008.3 1008.3 0.2
04/09:00pm 14.8 9.4 12.3 85 1.4 N 32 37 17 20 1008.2 1008.2 0.2
04/08:30pm 13.9 11.2 11.8 87 1.1 NNW 17 20 9 11 1008.5 1008.5 0.2
04/08:00pm 13.6 10.8 11.5 87 1.1 NNW 17 20 9 11 1008.9 1008.9 0.2
04/07:30pm 13.2 10.7 11.1 87 1.1 NNW 15 20 8 11 1009.1 1009.1 0.2
04/07:00pm 12.9 10.3 10.8 87 1.1 NNW 15 17 8 9 1009.3 1009.3 0.2
04/06:30pm 13.0 10.7 10.5 85 1.3 NW 13 17 7 9 1009.5 1009.5 0.2
04/06:00pm 13.9 11.0 10.9 82 1.6 NW 17 20 9 11 1009.4 1009.4 0.2
04/05:30pm 14.5 10.9 10.7 78 2.0 NNW 20 26 11 14 1009.3 1009.3 0.2
04/05:00pm 15.0 11.6 10.6 75 2.3 NW 19 24 10 13 1009.7 1009.7 0.2
04/04:30pm 15.3 11.6 10.3 72 2.6 NW 20 28 11 15 1010.0 1010.0 0.2
04/04:00pm 15.8 11.3 9.9 68 3.1 NW 24 33 13 18 1010.4 1010.4 0.2
04/03:30pm 16.2 12.5 10.1 67 3.2 NW 20 26 11 14 1010.5 1010.5 0.2
04/03:00pm 16.6 12.1 10.0 65 3.5 WNW 24 35 13 19 1010.8 1010.8 0.2
04/02:30pm 16.5 13.1 11.4 72 2.8 NNW 20 28 11 15 1010.9 1010.9 0.2
04/02:00pm 16.8 12.9 9.5 62 3.8 NW 20 28 11 15 1011.2 1011.2 0.2
04/01:30pm 16.9 12.2 9.3 61 4.0 WNW 24 32 13 17 1011.6 1011.6 0.2
04/01:00pm 16.6 12.1 10.0 65 3.5 NW 24 32 13 17 1012.1 1012.1 0.0
04/12:30pm 16.6 13.0 10.5 67 3.2 NW 20 28 11 15 1012.6 1012.6 0.0
04/12:00pm 16.5 13.7 11.2 71 2.9 NNW 17 24 9 13 1013.1 1013.1 0.0
04/11:30am 16.4 13.4 10.7 69 3.0 NNW 17 22 9 12 1013.8 1013.8 0.0
04/11:00am 17.6 15.4 12.1 70 3.0 NNW 15 24 8 13 1014.0 1014.0 0.0
04/10:30am 17.3 15.5 12.2 72 2.8 NNW 13 19 7 10 1014.3 1014.3 0.0
04/10:00am 16.1 13.8 11.9 76 2.3 NW 15 19 8 10 1014.6 1014.6 0.0
04/09:30am 15.6 14.5 11.8 78 2.1 NW 9 13 5 7 1014.9 1014.9 0.0
04/09:00am 14.0 12.5 10.6 80 1.8 WNW 9 13 5 7 1015.3 1015.3 0.2
04/08:30am 13.8 11.5 10.6 81 1.7 W 13 13 7 7 1015.3 1015.3 0.2
04/08:00am 12.5 9.2 9.5 82 1.5 W 17 19 9 10 1015.2 1015.2 0.2
04/07:30am 11.3 7.8 8.9 85 1.2 WNW 17 22 9 12 1015.1 1015.1 0.2
04/07:00am 10.7 6.6 8.6 87 1.0 WNW 20 24 11 13 1015.1 1015.1 0.2
04/06:30am 11.3 7.6 9.4 88 1.0 W 19 20 10 11 1015.0 1015.0 0.2
04/06:00am 11.4 8.0 9.0 85 1.2 W 17 17 9 9 1015.1 1015.1 0.2
04/05:30am 11.7 7.8 9.4 86 1.2 W 20 22 11 12 1015.2 1015.2 0.2
04/05:00am 11.3 7.9 9.2 87 1.0 W 17 20 9 11 1015.1 1015.1 0.2
04/04:30am 11.1 7.7 9.2 88 0.9 W 17 20 9 11 1015.2 1015.2 0.2
04/04:00am 11.0 7.2 9.1 88 0.9 W 19 20 10 11 1015.5 1015.5 0.2
04/03:30am 10.6 6.6 9.2 91 0.7 W 20 22 11 12 1015.7 1015.7 0.2
04/03:00am 10.4 7.0 9.0 91 0.7 W 17 22 9 12 1016.0 1016.0 0.2
04/02:30am 10.5 7.5 9.1 91 0.7 WSW 15 17 8 9 1016.3 1016.3 0.2
04/02:00am 10.5 7.4 8.9 90 0.8 WSW 15 17 8 9 1016.5 1016.5 0.2
04/01:30am 10.9 8.3 9.5 91 0.7 WSW 13 15 7 8 1016.7 1016.7 0.2
04/01:00am 10.8 8.6 9.2 90 0.8 WSW 11 15 6 8 1016.9 1016.9 0.2
04/12:30am 10.8 7.4 9.2 90 0.8 WSW 17 19 9 10 1017.3 1017.3 0.2
04/12:00am 10.5 7.0 8.9 90 0.8 W 17 19 9 10 1017.4 1017.4 0.2
 
Date/Time
EST
Temp
°C
App
Temp
°C
Dew
Point
Rel
Hum
%
Delta-T
°C
Wind Press
QNH
hPa
Press
MSL
hPa
Rain
since 9 am
mm
Dir
 
Spd
km/h
Gust
km/h
Spd
kts
Gust
kts
03/11:30pm 11.5 9.0 9.6 88 1.0 WSW 13 15 7 8 1017.4 1017.4 0.2
03/11:00pm 12.1 10.1 10.2 88 1.0 SW 11 13 6 7 1017.5 1017.5 0.2
03/10:30pm 12.5 11.0 10.7 89 0.9 WSW 9 13 5 7 1017.5 1017.5 0.2
03/10:00pm 12.5 10.7 10.7 89 0.9 SW 11 13 6 7 1017.6 1017.6 0.2
03/09:30pm 12.6 10.4 10.7 88 1.0 SW 13 15 7 8 1017.7 1017.7 0.2
03/09:00pm 12.5 9.4 10.4 87 1.1 SW 17 19 9 10 1017.7 1017.7 0.2
03/08:30pm 12.2 9.3 9.8 85 1.2 WSW 15 17 8 9 1017.4 1017.4 0.2
03/08:00pm 12.1 9.2 9.5 84 1.3 W 15 19 8 10 1017.4 1017.4 0.2
03/07:30pm 12.2 8.5 9.4 83 1.4 W 19 26 10 14 1017.3 1017.3 0.2
03/07:00pm 13.0 11.1 10.4 84 1.3 NW 11 15 6 8 1017.2 1017.2 0.2
03/06:30pm 13.5 11.2 10.5 82 1.6 NNW 13 15 7 8 1017.1 1017.1 0.2
03/06:00pm 13.6 10.9 10.4 81 1.7 NW 15 20 8 11 1016.8 1016.8 0.2
03/05:30pm 14.0 11.6 10.2 78 2.0 WNW 13 17 7 9 1016.4 1016.4 0.2
03/05:00pm 15.0 12.3 10.2 73 2.5 NW 15 20 8 11 1016.4 1016.4 0.2
03/04:30pm 16.0 13.9 9.9 67 3.2 NW 11 15 6 8 1016.4 1016.4 0.2
03/04:00pm 16.2 12.9 9.4 64 3.5 WNW 17 22 9 12 1016.2 1016.2 0.2
03/03:30pm 16.6 13.3 9.5 63 3.7 WNW 17 24 9 13 1016.0 1016.0 0.2
03/03:00pm 17.6 12.6 9.5 59 4.2 NW 26 35 14 19 1015.9 1015.9 0.2
03/02:30pm 18.4 14.3 10.0 58 4.5 WNW 22 35 12 19 1015.9 1015.9 0.2
03/02:00pm 18.4 14.4 10.3 59 4.3 WNW 22 32 12 17 1015.9 1015.9 0.2
03/01:30pm 18.2 14.5 10.1 59 4.3 WNW 20 33 11 18 1016.1 1016.1 0.2
03/01:00pm 18.3 13.6 9.4 56 4.7 WNW 24 39 13 21 1016.1 1016.1 0.2
03/12:30pm 18.0 13.9 10.1 60 4.2 WNW 22 35 12 19 1016.5 1016.5 0.2
03/12:00pm 18.1 14.2 10.7 62 4.0 WNW 22 32 12 17 1017.0 1017.0 0.2
03/11:30am 17.4 13.0 10.5 64 3.7 WNW 24 33 13 18 1017.3 1017.3 0.2
03/11:00am 16.7 11.5 10.1 65 3.5 WNW 28 33 15 18 1017.4 1017.4 0.2
03/10:30am 16.4 11.8 10.9 70 2.9 WNW 26 35 14 19 1017.3 1017.3 0.2
03/10:00am 16.0 12.3 11.4 74 2.5 WNW 22 32 12 17 1017.4 1017.4 0.2
03/09:30am 15.4 11.5 12.0 80 1.8 NW 24 30 13 16 1017.5 1017.5 0.2
03/09:00am 14.7 11.4 11.5 81 1.7 WNW 20 28 11 15 1017.5 1017.5 1.4
03/08:30am 14.1 12.1 11.6 85 1.3 WNW 13 19 7 10 1017.6 1017.6 1.4
03/08:00am 13.5 11.2 11.7 89 1.0 WNW 15 22 8 12 1017.2 1017.2 1.4
03/07:30am 13.7 10.8 12.4 92 0.7 NNW 19 24 10 13 1016.6 1016.6 1.4
03/07:00am 13.9 11.1 12.5 91 0.8 NW 19 24 10 13 1016.2 1016.2 1.4
03/06:30am 13.7 11.2 12.3 91 0.8 NNW 17 24 9 13 1015.9 1015.9 1.4
03/06:00am 13.3 10.3 12.0 92 0.7 NNW 19 26 10 14 1015.7 1015.7 1.4
03/05:30am 13.3 10.4 12.2 93 0.6 NW 19 26 10 14 1015.6 1015.6 1.4
03/05:00am 13.6 11.2 12.5 93 0.6 NNW 17 22 9 12 1015.5 1015.5 1.4
03/04:30am 13.6 11.2 12.5 93 0.6 NNW 17 20 9 11 1015.3 1015.3 1.4
03/04:00am 13.5 11.0 12.4 93 0.6 NNW 17 20 9 11 1015.1 1015.1 1.4
03/03:30am 13.5 11.0 12.4 93 0.6 NW 17 20 9 11 1015.1 1015.1 1.4
03/03:00am 14.0 11.6 12.7 92 0.7 NNW 17 24 9 13 1015.0 1015.0 1.4
03/02:30am 14.1 12.1 12.7 91 0.8 NNW 15 19 8 10 1015.0 1015.0 1.4
03/02:00am 14.4 12.5 13.1 92 0.7 NNW 15 20 8 11 1015.0 1015.0 1.4
03/01:30am 14.3 12.8 13.2 93 0.6 NNW 13 17 7 9 1015.0 1015.0 1.4
03/01:00am 14.1 12.6 13.0 93 0.6 NNW 13 15 7 8 1015.1 1015.1 1.4
03/12:30am 14.8 12.4 13.7 93 0.6 NW 19 24 10 13 1014.9 1014.9 1.4
03/12:00am 14.9 12.5 13.9 94 0.6 NNW 19 24 10 13 1015.1 1015.1 1.4
 
Date/Time
EST
Temp
°C
App
Temp
°C
Dew
Point
Rel
Hum
%
Delta-T
°C
Wind Press
QNH
hPa
Press
MSL
hPa
Rain
since 9 am
mm
Dir
 
Spd
km/h
Gust
km/h
Spd
kts
Gust
kts
02/11:30pm 15.1 12.6 14.1 94 0.6 NNW 20 24 11 13 1015.2 1015.2 1.4
02/11:00pm 15.5 13.1 14.5 94 0.6 NNW 20 26 11 14 1015.4 1015.4 1.4
02/10:30pm 15.3 13.4 14.2 93 0.6 NW 17 20 9 11 1015.4 1015.4 1.4
02/10:00pm 15.0 13.8 13.9 93 0.6 NNW 13 17 7 9 1015.5 1015.5 1.4
02/09:30pm 14.8 13.1 13.7 93 0.6 NW 15 20 8 11 1015.6 1015.6 1.4
02/09:00pm 14.9 14.0 13.8 93 0.6 NW 11 15 6 8 1015.7 1015.7 1.2
02/08:30pm 15.1 13.5 13.8 92 0.7 NW 15 24 8 13 1015.9 1015.9 1.2
02/08:00pm 15.3 11.6 13.8 91 0.8 NW 26 35 14 19 1015.8 1015.8 1.0
02/07:30pm 15.3 11.5 13.5 89 1.0 NW 26 41 14 22 1015.3 1015.3 0.4
02/07:00pm 15.8 12.4 13.8 88 1.1 NW 24 32 13 17 1014.9 1014.9 0.0
02/06:30pm 16.4 13.4 13.7 84 1.5 NNW 22 30 12 16 1014.8 1014.8 0.0
02/06:00pm 16.5 14.2 14.7 89 1.0 NNW 20 24 11 13 1014.9 1014.9 0.0
02/05:30pm 16.6 12.4 14.6 88 1.1 N 30 39 16 21 1014.7 1014.7 0.0
02/05:00pm 16.7 12.8 14.3 86 1.4 N 28 37 15 20 1014.7 1014.7 0.0
02/04:30pm 16.7 13.0 15.1 90 0.9 N 28 39 15 21 1014.3 1014.3 0.0
02/04:00pm 16.9 13.3 15.2 90 1.0 N 28 35 15 19 1014.8 1014.8 0.0
02/03:30pm 17.0 13.8 15.3 90 1.0 N 26 32 14 17 1015.0 1015.0 0.0
02/03:00pm 17.3 13.0 15.3 88 1.2 N 32 37 17 20 1015.1 1015.1 0.0
02/02:30pm 17.2 13.7 15.5 90 1.0 NNE 28 32 15 17 1015.4 1015.4 0.0
02/02:00pm 17.3 13.8 15.5 89 1.1 NNE 28 33 15 18 1015.9 1015.9 0.0
02/01:30pm 17.8 13.9 15.6 87 1.3 NNE 30 35 16 19 1016.1 1016.1 0.0
02/01:00pm 17.6 16.9 15.4 87 1.3 N 13 19 7 10 1016.7 1016.7 0.0
02/12:30pm 17.4 15.4 15.4 88 1.2 N 20 26 11 14 1017.2 1017.2 0.0
02/12:00pm 17.3 15.2 15.3 88 1.2 N 20 22 11 12 1018.0 1018.0 0.0
02/11:30am 17.3 15.4 15.1 87 1.3 NNW 19 24 10 13 1018.7 1018.7 0.0
02/11:00am 17.6 15.0 15.0 85 1.5 N 22 28 12 15 1019.1 1019.1 0.0
02/10:30am 17.4 15.2 14.9 85 1.4 N 20 28 11 15 1019.5 1019.5 0.0
02/10:00am 17.4 15.4 15.0 86 1.4 NNW 19 24 10 13 1019.8 1019.8 0.0
02/09:30am 17.3 15.8 15.3 88 1.2 NNW 17 24 9 13 1020.0 1020.0 0.0
02/09:00am 16.8 14.8 15.0 89 1.0 N 19 24 10 13 1020.3 1020.3 0.0
02/08:30am 16.6 13.7 15.0 90 0.9 N 24 28 13 15 1020.3 1020.3 0.0
02/08:00am 16.6 12.9 15.0 90 0.9 N 28 33 15 18 1020.4 1020.4 0.0
02/07:30am 16.2 14.2 14.9 92 0.7 N 19 28 10 15 1020.3 1020.3 0.0

Other Formats:

Comma delimited format used in spreadsheet applications
http://www.bom.gov.au/fwo/IDT60801/IDT60801.94983.axf

JavaScript Object Notation format (JSON) in row-major order
http://www.bom.gov.au/fwo/IDT60801/IDT60801.94983.json